Time;durP1;ratioP1;P1;durP2;ratioP2;P2;SDS_P1;SDS_P2;PMS_P1;PMS_P2;Temp;Humidity;BMP_temperature;BMP_pressure;BME280_temperature;BME280_humidity;BME280_pressure;Samples;Min_cycle;Max_cycle;Signal;HPM_P1;HPM_P2
2022/12/05 00:01:33;;;;;;;23.70;10.73;;;3.40;99.90;;;;;;5004175;28;20026;-73
2022/12/05 00:04:01;;;;;;;22.02;9.98;;;3.40;99.90;;;;;;5007091;28;20127;-73
2022/12/05 00:06:28;;;;;;;24.40;11.05;;;3.40;99.90;;;;;;5006317;28;20017;-73
2022/12/05 00:08:55;;;;;;;20.20;10.77;;;3.40;99.90;;;;;;5006766;28;20417;-73
2022/12/05 00:11:27;;;;;;;23.50;10.55;;;3.40;99.90;;;;;;5007896;28;20026;-73
2022/12/05 00:13:57;;;;;;;21.23;10.30;;;3.30;99.90;;;;;;5003464;28;20555;-73
2022/12/05 00:16:24;;;;;;;23.02;11.15;;;3.30;99.90;;;;;;5002326;28;20033;-73
2022/12/05 00:18:54;;;;;;;21.73;9.80;;;3.20;99.90;;;;;;5005796;28;20052;-73
2022/12/05 00:21:24;;;;;;;20.60;10.50;;;3.20;99.90;;;;;;5005339;28;20049;-73
2022/12/05 00:23:51;;;;;;;19.77;10.85;;;3.20;99.90;;;;;;5005754;28;20042;-73
2022/12/05 00:26:26;;;;;;;22.52;11.15;;;3.20;99.90;;;;;;5006527;28;20034;-73
2022/12/05 00:28:52;;;;;;;20.60;9.77;;;3.20;99.90;;;;;;5005369;28;20052;-73
2022/12/05 00:31:27;;;;;;;20.73;11.18;;;3.30;99.90;;;;;;5001421;28;20022;-73
2022/12/05 00:34:00;;;;;;;22.52;10.82;;;3.30;99.90;;;;;;5006386;28;20026;-73
2022/12/05 00:36:29;;;;;;;24.05;10.57;;;3.30;99.90;;;;;;5007844;28;20462;-73
2022/12/05 00:38:57;;;;;;;23.27;10.15;;;3.30;99.90;;;;;;5003176;28;20022;-73
2022/12/05 00:41:24;;;;;;;20.27;9.68;;;3.30;99.90;;;;;;5004067;28;20034;-73
2022/12/05 00:43:51;;;;;;;21.25;10.23;;;3.30;99.90;;;;;;5005974;28;20036;-73
2022/12/05 00:46:19;;;;;;;23.10;10.75;;;3.30;99.90;;;;;;5002352;28;20562;-73
2022/12/05 00:48:45;;;;;;;26.30;12.05;;;3.30;99.90;;;;;;5003942;28;20037;-73
2022/12/05 00:51:17;;;;;;;25.55;11.88;;;3.30;99.90;;;;;;5007258;28;20045;-73
2022/12/05 00:53:44;;;;;;;24.30;10.95;;;3.30;99.90;;;;;;5003629;28;20026;-72
2022/12/05 00:56:13;;;;;;;21.40;9.80;;;3.30;99.90;;;;;;5002765;28;20104;-73
2022/12/05 00:58:46;;;;;;;22.35;11.13;;;3.30;99.90;;;;;;5003579;28;20057;-73
2022/12/05 01:01:20;;;;;;;23.45;9.95;;;3.30;99.90;;;;;;5005038;28;20034;-72
2022/12/05 01:03:47;;;;;;;22.80;10.18;;;3.30;99.90;;;;;;5003051;28;20045;-74
2022/12/05 01:06:15;;;;;;;25.10;10.55;;;3.40;99.90;;;;;;5005132;28;20371;-72
2022/12/05 01:08:41;;;;;;;22.73;10.70;;;3.30;99.90;;;;;;5002661;28;20022;-74
2022/12/05 01:11:08;;;;;;;23.48;11.45;;;3.30;99.90;;;;;;5006568;28;20026;-72
2022/12/05 01:13:34;;;;;;;21.15;10.90;;;3.40;99.90;;;;;;5002631;28;21697;-72
2022/12/05 01:16:03;;;;;;;25.67;10.38;;;3.40;99.90;;;;;;4999687;28;20034;-74
2022/12/05 01:18:29;;;;;;;20.55;9.30;;;3.40;99.90;;;;;;5006158;28;20412;-74
2022/12/05 01:20:55;;;;;;;22.48;10.45;;;3.40;99.90;;;;;;5003161;28;20494;-74
2022/12/05 01:23:21;;;;;;;23.73;10.85;;;3.40;99.90;;;;;;5000825;28;20036;-75
2022/12/05 01:25:49;;;;;;;21.25;11.05;;;3.40;99.90;;;;;;5003026;28;20026;-74
2022/12/05 01:28:16;;;;;;;22.38;10.68;;;3.40;99.90;;;;;;4998547;28;20547;-74
2022/12/05 01:30:46;;;;;;;22.10;10.23;;;3.50;99.90;;;;;;5007368;28;20116;-73
2022/12/05 01:33:12;;;;;;;24.08;11.60;;;3.40;99.90;;;;;;5009038;28;20109;-74
2022/12/05 01:35:39;;;;;;;24.67;10.50;;;3.40;99.90;;;;;;5009817;28;20097;-73
2022/12/05 01:38:05;;;;;;;25.33;10.30;;;3.40;99.90;;;;;;5006214;28;20049;-73
2022/12/05 01:40:34;;;;;;;25.08;10.77;;;3.40;99.90;;;;;;5007056;28;20030;-75
2022/12/05 01:43:00;;;;;;;26.27;11.18;;;3.40;99.90;;;;;;4999959;28;20026;-75
2022/12/05 01:45:34;;;;;;;21.90;10.45;;;3.40;99.90;;;;;;4997075;28;20116;-75
2022/12/05 01:48:29;;;;;;;28.05;11.68;;;3.40;99.90;;;;;;5006160;28;20030;-75
2022/12/05 01:50:57;;;;;;;24.23;10.95;;;3.40;99.90;;;;;;5009452;28;20046;-75
2022/12/05 01:53:23;;;;;;;24.67;11.52;;;3.40;99.90;;;;;;5009476;28;20033;-74
2022/12/05 01:55:53;;;;;;;25.67;11.85;;;3.40;99.90;;;;;;5006360;28;20082;-75
2022/12/05 01:58:20;;;;;;;25.58;10.73;;;3.40;99.90;;;;;;5007143;28;20379;-75
2022/12/05 02:00:46;;;;;;;23.40;11.75;;;3.30;99.90;;;;;;5009150;28;20088;-74
2022/12/05 02:03:17;;;;;;;23.33;10.82;;;3.40;99.90;;;;;;5004838;28;20022;-75
2022/12/05 02:05:50;;;;;;;27.55;12.77;;;3.40;99.90;;;;;;5008661;28;20033;-75
2022/12/05 02:08:16;;;;;;;23.70;11.27;;;3.40;99.90;;;;;;5011054;28;20049;-75
2022/12/05 02:10:50;;;;;;;26.58;11.18;;;3.40;99.90;;;;;;5006270;28;20030;-75
2022/12/05 02:13:35;;;;;;;24.48;11.27;;;3.40;99.90;;;;;;5006328;28;20038;-74
2022/12/05 02:16:20;;;;;;;23.85;10.50;;;3.40;99.90;;;;;;5006475;28;20029;-75
2022/12/05 02:19:07;;;;;;;22.80;10.90;;;3.40;99.90;;;;;;5021334;28;20037;-74
2022/12/05 02:22:00;;;;;;;24.27;11.48;;;3.40;99.90;;;;;;5005666;28;20039;-74
2022/12/05 02:24:51;;;;;;;21.48;10.15;;;3.40;99.90;;;;;;5009062;28;20109;-74
2022/12/05 02:27:38;;;;;;;20.95;10.02;;;3.40;99.90;;;;;;5003480;28;20026;-75
2022/12/05 02:30:22;;;;;;;25.70;11.02;;;3.40;99.90;;;;;;5008058;28;20053;-73
2022/12/05 02:33:25;;;;;;;20.15;8.70;;;3.40;99.90;;;;;;5001338;28;20030;-74
2022/12/05 02:36:00;;;;;;;21.67;9.35;;;3.50;99.90;;;;;;5006991;28;20454;-74
2022/12/05 02:38:37;;;;;;;18.88;8.80;;;3.50;99.90;;;;;;5003856;28;20406;-74
2022/12/05 02:41:33;;;;;;;17.05;8.43;;;3.50;99.90;;;;;;5005914;28;20132;-73
2022/12/05 02:44:35;;;;;;;17.95;8.55;;;3.50;99.90;;;;;;5009147;28;20391;-73
2022/12/05 02:47:03;;;;;;;17.23;9.15;;;3.50;99.90;;;;;;4980188;28;20053;-74
2022/12/05 02:49:35;;;;;;;18.17;8.90;;;3.50;99.90;;;;;;5008096;28;20026;-74
2022/12/05 02:52:04;;;;;;;20.02;10.05;;;3.50;99.90;;;;;;5007587;28;20026;-74
2022/12/05 02:54:35;;;;;;;15.98;8.30;;;3.50;99.90;;;;;;5010419;28;20026;-74
2022/12/05 02:57:01;;;;;;;18.75;8.65;;;3.50;99.90;;;;;;5013910;28;20036;-74
2022/12/05 02:59:27;;;;;;;22.50;9.68;;;3.50;99.90;;;;;;5010498;28;20030;-74
2022/12/05 03:01:53;;;;;;;20.42;8.98;;;3.40;99.90;;;;;;5007119;28;20022;-74
2022/12/05 03:04:21;;;;;;;17.65;8.98;;;3.50;99.90;;;;;;5010070;28;20460;-74
2022/12/05 03:06:53;;;;;;;24.13;8.18;;;3.40;99.90;;;;;;5003784;28;20034;-75
2022/12/05 03:09:41;;;;;;;16.13;7.07;;;3.50;99.90;;;;;;5006792;28;20036;-75
2022/12/05 03:12:21;;;;;;;14.60;7.53;;;3.50;99.90;;;;;;5004075;28;20511;-75
2022/12/05 03:14:54;;;;;;;15.35;7.97;;;3.40;99.90;;;;;;5002963;28;20025;-75
2022/12/05 03:17:25;;;;;;;14.85;7.30;;;3.50;99.90;;;;;;5007776;28;20030;-74
2022/12/05 03:20:19;;;;;;;16.80;8.10;;;3.50;99.90;;;;;;5006233;28;20053;-74
2022/12/05 03:23:13;;;;;;;18.08;7.93;;;3.50;99.90;;;;;;5006700;28;20026;-75
2022/12/05 03:25:53;;;;;;;16.40;7.90;;;3.50;99.90;;;;;;5005778;28;20048;-74
2022/12/05 03:28:56;;;;;;;14.80;7.47;;;3.50;99.90;;;;;;5000893;28;20030;-74
2022/12/05 03:31:36;;;;;;;17.42;7.97;;;3.50;99.90;;;;;;4986361;28;20133;-74
2022/12/05 03:34:05;;;;;;;18.10;8.82;;;3.50;99.90;;;;;;5009405;28;20060;-74
2022/12/05 03:36:42;;;;;;;18.17;7.80;;;3.50;99.90;;;;;;5007235;28;20060;-74
2022/12/05 03:39:18;;;;;;;18.52;8.13;;;3.50;99.90;;;;;;5006889;28;20034;-74
2022/12/05 03:42:10;;;;;;;19.50;9.00;;;3.50;99.90;;;;;;5005129;28;20018;-75
2022/12/05 03:45:00;;;;;;;20.25;9.27;;;3.50;99.90;;;;;;4987163;28;20434;-74
2022/12/05 03:47:48;;;;;;;18.20;8.77;;;3.40;99.90;;;;;;5005573;28;20136;-74
2022/12/05 03:50:24;;;;;;;17.75;8.10;;;3.40;99.90;;;;;;5008728;28;20118;-74
2022/12/05 03:53:02;;;;;;;15.07;7.82;;;3.40;99.90;;;;;;5000785;28;20080;-74
2022/12/05 03:55:32;;;;;;;18.02;8.15;;;3.30;99.90;;;;;;5006033;28;20030;-74
2022/12/05 03:58:07;;;;;;;20.85;9.18;;;3.30;99.90;;;;;;5004951;28;20486;-73
2022/12/05 04:00:38;;;;;;;16.35;8.40;;;3.30;99.90;;;;;;5000973;28;20025;-74
2022/12/05 04:03:18;;;;;;;17.95;7.72;;;3.30;99.90;;;;;;5006396;28;20478;-73
2022/12/05 04:06:27;;;;;;;17.63;8.15;;;3.30;99.90;;;;;;5000836;28;20107;-74
2022/12/05 04:09:17;;;;;;;17.80;8.60;;;3.30;99.90;;;;;;5003367;28;20032;-74
2022/12/05 04:11:50;;;;;;;19.42;8.38;;;3.20;99.90;;;;;;4997915;28;20038;-73
2022/12/05 04:14:24;;;;;;;17.88;8.18;;;3.20;99.90;;;;;;5002728;28;20037;-74
2022/12/05 04:17:08;;;;;;;17.45;8.73;;;3.20;99.90;;;;;;5005562;28;20037;-73
2022/12/05 04:22:43;;;;;;;15.55;7.68;;;3.20;99.90;;;;;;5004457;28;20502;-73
2022/12/05 04:25:35;;;;;;;18.08;8.50;;;3.10;99.90;;;;;;5000638;28;20037;-73
2022/12/05 04:28:04;;;;;;;16.33;8.13;;;3.10;99.90;;;;;;5003046;28;20378;-73
2022/12/05 04:30:59;;;;;;;21.92;9.77;;;3.10;99.90;;;;;;5003890;28;20026;-73
2022/12/05 04:33:54;;;;;;;19.85;9.02;;;3.10;99.90;;;;;;4997030;28;20045;-73
2022/12/05 04:36:22;;;;;;;18.92;9.23;;;3.10;99.90;;;;;;5004701;28;20076;-73
2022/12/05 04:39:19;;;;;;;19.05;9.00;;;3.10;99.90;;;;;;5003861;28;20034;-74
2022/12/05 04:42:08;;;;;;;22.50;9.27;;;3.00;99.90;;;;;;5002844;28;20046;-74
2022/12/05 04:44:39;;;;;;;19.52;8.52;;;3.00;99.90;;;;;;5007685;28;20075;-74
2022/12/05 04:47:09;;;;;;;16.00;8.43;;;3.00;99.90;;;;;;5005699;28;20503;-74
2022/12/05 04:49:46;;;;;;;20.00;8.65;;;3.00;99.90;;;;;;5005851;28;20503;-74
2022/12/05 04:52:13;;;;;;;17.13;8.82;;;2.90;99.90;;;;;;5001752;28;20089;-75
2022/12/05 04:54:51;;;;;;;19.50;9.27;;;2.90;99.90;;;;;;5005143;28;20100;-74
2022/12/05 04:57:32;;;;;;;22.75;9.30;;;2.90;99.90;;;;;;5014491;23;20130;-75
2022/12/05 05:00:07;;;;;;;17.55;8.77;;;2.80;99.90;;;;;;5008396;28;20037;-75
2022/12/05 05:02:42;;;;;;;16.92;8.00;;;2.80;99.90;;;;;;5006809;28;20030;-75
2022/12/05 05:05:10;;;;;;;19.40;9.55;;;2.80;99.90;;;;;;5010472;28;20038;-76
2022/12/05 05:07:47;;;;;;;22.33;9.75;;;2.80;99.90;;;;;;5007602;28;20379;-76
2022/12/05 05:10:18;;;;;;;19.63;8.85;;;2.80;99.90;;;;;;4986581;28;20022;-76
2022/12/05 05:12:44;;;;;;;21.58;10.20;;;2.80;99.90;;;;;;4991295;28;20041;-76
2022/12/05 05:15:10;;;;;;;15.63;6.97;;;2.80;99.90;;;;;;4988245;28;20030;-76
2022/12/05 05:17:36;;;;;;;18.45;7.43;;;2.80;99.90;;;;;;4990504;28;20019;-76
2022/12/05 05:20:23;;;;;;;18.52;8.70;;;2.80;99.90;;;;;;4994390;28;20471;-75
2022/12/05 05:22:49;;;;;;;20.73;8.20;;;2.80;99.90;;;;;;4987537;28;20043;-75
2022/12/05 05:25:15;;;;;;;13.98;7.03;;;2.80;99.90;;;;;;4988953;28;20023;-75
2022/12/05 05:27:59;;;;;;;15.13;7.60;;;2.80;99.90;;;;;;4991214;28;20023;-70
2022/12/05 05:30:31;;;;;;;19.48;7.88;;;2.90;99.90;;;;;;4984232;28;20113;-70
2022/12/05 05:33:05;;;;;;;15.23;7.80;;;2.90;99.90;;;;;;4986404;28;20042;-70
2022/12/05 05:35:35;;;;;;;17.05;8.95;;;2.90;99.90;;;;;;4988967;28;20153;-70
2022/12/05 05:38:10;;;;;;;14.85;7.10;;;2.90;99.90;;;;;;4990377;28;20022;-70
2022/12/05 05:40:36;;;;;;;15.07;7.88;;;3.00;99.90;;;;;;4983673;28;20109;-70
2022/12/05 05:43:02;;;;;;;15.30;7.43;;;3.00;99.90;;;;;;4987701;28;20026;-76
2022/12/05 05:45:27;;;;;;;13.15;7.28;;;3.00;99.90;;;;;;4990231;28;20391;-75
2022/12/05 05:48:02;;;;;;;15.00;7.13;;;3.10;99.90;;;;;;4990477;28;20019;-76
2022/12/05 05:50:37;;;;;;;18.13;8.35;;;3.10;99.90;;;;;;4987630;28;20395;-76
2022/12/05 05:53:05;;;;;;;17.33;8.63;;;3.10;99.90;;;;;;4987345;28;20543;-76
2022/12/05 05:55:31;;;;;;;14.23;7.43;;;3.10;99.90;;;;;;4995965;28;20485;-78
2022/12/05 05:58:02;;;;;;;15.15;7.75;;;3.10;99.90;;;;;;4992722;28;20125;-76
2022/12/05 06:00:31;;;;;;;16.05;7.35;;;3.20;99.90;;;;;;4994138;28;20069;-76
2022/12/05 06:02:56;;;;;;;17.38;8.27;;;3.20;99.90;;;;;;4987811;28;20498;-76
2022/12/05 06:05:25;;;;;;;15.95;7.93;;;3.20;99.90;;;;;;4992853;28;20030;-77
2022/12/05 06:08:00;;;;;;;15.40;8.13;;;3.20;99.90;;;;;;4988300;28;20109;-76
2022/12/05 06:10:31;;;;;;;16.10;7.10;;;3.20;99.90;;;;;;4987464;28;20035;-78
2022/12/05 06:13:03;;;;;;;17.95;8.15;;;3.20;99.90;;;;;;4996907;28;20046;-78
2022/12/05 06:15:28;;;;;;;13.13;6.78;;;3.20;99.90;;;;;;4995699;28;20570;-79
2022/12/05 06:17:55;;;;;;;12.80;7.63;;;3.20;99.90;;;;;;4998381;28;20050;-79
2022/12/05 06:20:24;;;;;;;13.90;7.53;;;3.30;99.90;;;;;;4990105;28;20042;-73
2022/12/05 06:22:49;;;;;;;15.75;6.40;;;3.30;99.90;;;;;;4991832;28;20086;-77
2022/12/05 06:25:24;;;;;;;16.08;7.57;;;3.30;99.90;;;;;;4993882;28;20045;-77
2022/12/05 06:27:49;;;;;;;16.55;7.60;;;3.30;99.90;;;;;;4991368;28;20117;-76
2022/12/05 06:30:18;;;;;;;21.75;9.75;;;3.30;99.90;;;;;;4988293;28;20102;-76
2022/12/05 06:32:44;;;;;;;18.88;9.43;;;3.40;99.90;;;;;;4990503;28;20050;-76
2022/12/05 06:35:14;;;;;;;14.82;7.93;;;3.40;99.90;;;;;;4989303;28;20069;-77
2022/12/05 06:37:48;;;;;;;13.27;8.20;;;3.40;99.90;;;;;;4991588;28;20364;-77
2022/12/05 06:40:14;;;;;;;17.70;8.38;;;3.30;99.90;;;;;;4991872;28;20030;-77
2022/12/05 06:42:40;;;;;;;19.80;10.32;;;3.30;99.90;;;;;;4984482;28;20054;-76
2022/12/05 06:45:06;;;;;;;21.75;9.30;;;3.30;99.90;;;;;;4989142;28;20432;-77
2022/12/05 06:47:35;;;;;;;19.35;8.65;;;3.30;99.90;;;;;;4992716;28;20054;-79
2022/12/05 06:50:07;;;;;;;20.80;8.98;;;3.30;99.90;;;;;;4990752;28;20053;-78
2022/12/05 06:52:36;;;;;;;19.02;8.30;;;3.30;99.90;;;;;;4986953;28;20034;-78
2022/12/05 06:55:02;;;;;;;15.45;7.95;;;3.20;99.90;;;;;;4996348;28;20042;-78
2022/12/05 06:57:28;;;;;;;13.63;7.55;;;3.30;99.90;;;;;;4985310;28;20026;-77
2022/12/05 07:02:41;;;;;;;18.45;8.85;;;3.30;99.90;;;;;;4989880;28;20094;-78
2022/12/05 07:05:10;;;;;;;17.67;9.07;;;3.30;99.90;;;;;;4994980;28;20046;-78
2022/12/05 07:07:36;;;;;;;16.95;8.63;;;3.30;99.90;;;;;;4996736;28;20026;-78
2022/12/05 07:10:02;;;;;;;21.02;8.63;;;3.30;99.90;;;;;;4986176;28;20173;-75
2022/12/05 07:12:31;;;;;;;18.00;7.97;;;3.30;99.90;;;;;;4990652;28;20034;-77
2022/12/05 07:15:12;;;;;;;14.93;7.60;;;3.30;99.90;;;;;;4989052;28;20438;-76
2022/12/05 07:17:40;;;;;;;19.75;8.23;;;3.30;99.90;;;;;;4990579;28;20026;-78
2022/12/05 07:20:09;;;;;;;16.67;7.78;;;3.40;99.90;;;;;;4993340;28;20104;-78
2022/12/05 07:22:35;;;;;;;19.92;8.65;;;3.40;99.90;;;;;;4991042;28;20345;-76
2022/12/05 07:25:04;;;;;;;17.25;8.27;;;3.40;99.90;;;;;;4990316;28;20029;-77
2022/12/05 07:27:30;;;;;;;15.15;7.80;;;3.40;99.90;;;;;;4995981;28;20096;-77
2022/12/05 07:29:56;;;;;;;16.40;7.50;;;3.40;99.90;;;;;;4991048;28;20031;-77
2022/12/05 07:32:21;;;;;;;14.05;6.45;;;3.50;99.90;;;;;;4979702;28;20755;-76
2022/12/05 07:34:47;;;;;;;14.60;7.07;;;3.50;99.90;;;;;;4993238;28;20057;-77
2022/12/05 07:37:13;;;;;;;15.07;7.00;;;3.50;99.90;;;;;;4997039;28;20033;-77
2022/12/05 07:39:38;;;;;;;10.18;6.10;;;3.50;99.90;;;;;;4996794;28;20033;-77
2022/12/05 07:42:04;;;;;;;11.80;6.63;;;3.50;99.90;;;;;;4994801;28;20112;-78
2022/12/05 07:44:30;;;;;;;13.63;6.47;;;3.50;99.90;;;;;;4991669;28;20022;-79
2022/12/05 07:46:57;;;;;;;12.45;6.90;;;3.50;99.90;;;;;;4992636;28;20092;-78
2022/12/05 07:49:22;;;;;;;13.75;6.43;;;3.60;99.90;;;;;;5001079;28;20122;-78
2022/12/05 07:51:48;;;;;;;13.60;7.50;;;3.60;99.90;;;;;;4998654;28;20061;-77
2022/12/05 07:54:14;;;;;;;12.18;6.22;;;3.70;99.90;;;;;;5003092;28;20498;-79
2022/12/05 07:56:39;;;;;;;12.43;6.53;;;3.70;99.90;;;;;;4999673;28;20022;-77
2022/12/05 07:59:05;;;;;;;12.52;7.43;;;3.80;99.90;;;;;;5001114;28;20038;-76
2022/12/05 08:01:33;;;;;;;15.40;7.43;;;3.80;99.90;;;;;;4999581;28;20041;-77
2022/12/05 08:04:02;;;;;;;12.68;7.15;;;3.90;99.90;;;;;;4994463;28;20027;-77
2022/12/05 08:06:34;;;;;;;12.90;6.88;;;3.90;99.90;;;;;;4992536;28;20142;-78
2022/12/05 08:09:00;;;;;;;16.10;7.28;;;4.00;99.90;;;;;;4986512;28;20019;-77
2022/12/05 08:11:28;;;;;;;15.80;6.93;;;4.00;99.90;;;;;;4995326;28;20025;-77
2022/12/05 08:13:55;;;;;;;12.82;7.22;;;4.10;99.90;;;;;;4992012;28;20032;-76
2022/12/05 08:16:36;;;;;;;14.90;7.07;;;4.10;99.90;;;;;;4995412;28;20034;-76
2022/12/05 08:19:07;;;;;;;12.65;6.68;;;4.20;99.90;;;;;;4991699;28;20074;-76
2022/12/05 08:21:39;;;;;;;13.60;6.75;;;4.20;99.90;;;;;;4986396;28;20034;-76
2022/12/05 08:24:08;;;;;;;14.52;6.75;;;4.30;99.90;;;;;;4988242;28;20026;-75
2022/12/05 08:26:35;;;;;;;11.05;6.05;;;4.40;99.90;;;;;;4989011;28;20192;-77
2022/12/05 08:29:07;;;;;;;9.63;5.30;;;4.40;99.90;;;;;;4989472;28;20023;-76
2022/12/05 08:31:35;;;;;;;10.25;5.40;;;4.40;99.90;;;;;;4987566;28;20042;-76
2022/12/05 08:34:04;;;;;;;10.13;5.78;;;4.50;99.90;;;;;;4994160;28;20094;-77
2022/12/05 08:36:30;;;;;;;10.98;5.40;;;4.50;99.90;;;;;;4994057;28;20084;-78
2022/12/05 08:39:02;;;;;;;11.07;5.43;;;4.60;99.90;;;;;;4997280;28;20022;-78
2022/12/05 08:41:34;;;;;;;9.60;4.82;;;4.60;99.90;;;;;;4996125;28;20040;-78
2022/12/05 08:44:04;;;;;;;9.10;5.57;;;4.70;99.90;;;;;;5005424;28;20033;-78
2022/12/05 08:46:32;;;;;;;9.25;5.65;;;4.70;99.90;;;;;;4997495;28;20058;-77
2022/12/05 08:49:04;;;;;;;13.32;6.50;;;4.80;99.90;;;;;;5002172;28;20510;-77
2022/12/05 08:51:30;;;;;;;15.27;7.45;;;4.80;99.90;;;;;;4998897;28;20062;-79
2022/12/05 08:54:02;;;;;;;15.63;8.27;;;4.90;99.90;;;;;;5002215;28;20098;-77
2022/12/05 08:56:28;;;;;;;15.45;8.45;;;4.90;99.90;;;;;;4995192;28;20315;-77
2022/12/05 08:58:54;;;;;;;16.97;9.37;;;5.00;99.90;;;;;;4961823;28;1128808;-77
2022/12/05 09:01:30;;;;;;;14.50;7.75;;;5.00;99.90;;;;;;4995462;28;20031;-77
2022/12/05 09:04:00;;;;;;;14.52;7.90;;;5.00;99.90;;;;;;4996888;28;20072;-78
2022/12/05 09:06:28;;;;;;;14.07;7.25;;;5.00;99.90;;;;;;4998315;28;20030;-78
2022/12/05 09:08:59;;;;;;;17.40;8.48;;;5.00;99.90;;;;;;5002849;28;20019;-78
2022/12/05 09:11:39;;;;;;;18.08;9.02;;;5.00;99.90;;;;;;5001124;28;20026;-77
2022/12/05 09:14:14;;;;;;;18.83;8.82;;;5.00;99.90;;;;;;4998394;28;20474;-78
2022/12/05 09:16:40;;;;;;;17.27;9.25;;;5.00;99.90;;;;;;4991753;28;20052;-77
2022/12/05 09:19:19;;;;;;;18.45;8.98;;;5.00;99.90;;;;;;4992082;28;20558;-77
2022/12/05 09:21:45;;;;;;;23.73;9.20;;;5.00;99.90;;;;;;4995186;28;20106;-78
2022/12/05 09:24:12;;;;;;;20.83;8.70;;;5.00;99.90;;;;;;5002232;28;20026;-77
2022/12/05 09:26:50;;;;;;;17.42;8.43;;;5.00;99.90;;;;;;4997518;28;20068;-77
2022/12/05 09:29:19;;;;;;;18.70;8.90;;;5.00;99.90;;;;;;4998996;28;20023;-76
2022/12/05 09:31:47;;;;;;;21.85;9.82;;;5.00;99.90;;;;;;4995541;28;20105;-77
2022/12/05 09:34:19;;;;;;;20.08;10.43;;;4.90;99.90;;;;;;4995712;28;20053;-77
2022/12/05 09:36:50;;;;;;;20.05;10.18;;;5.00;99.90;;;;;;4998424;28;20037;-77
2022/12/05 09:39:15;;;;;;;22.92;10.43;;;5.00;99.90;;;;;;4996012;28;20042;-77
2022/12/05 09:44:38;;;;;;;17.20;8.02;;;5.10;99.90;;;;;;4991632;28;20021;-78
2022/12/05 09:47:12;;;;;;;16.30;8.60;;;5.10;99.90;;;;;;5000363;28;20026;-77
2022/12/05 09:50:05;;;;;;;15.02;8.25;;;5.10;99.90;;;;;;5001024;28;20077;-78
2022/12/05 09:52:52;;;;;;;15.23;7.75;;;5.10;99.90;;;;;;4990388;28;20038;-78
2022/12/05 09:55:20;;;;;;;14.38;7.15;;;5.10;99.90;;;;;;5000664;28;20049;-76
2022/12/05 09:57:56;;;;;;;14.57;7.10;;;5.10;99.90;;;;;;4995442;28;20088;-77
2022/12/05 10:00:23;;;;;;;16.60;7.63;;;5.10;99.90;;;;;;5002469;28;20038;-78
2022/12/05 10:03:23;;;;;;;13.63;7.38;;;5.10;99.90;;;;;;5006037;28;20037;-79
2022/12/05 10:06:26;;;;;;;14.98;7.15;;;5.10;99.90;;;;;;5006500;28;20034;-78
2022/12/05 10:09:14;;;;;;;12.45;7.20;;;5.10;99.90;;;;;;4999790;28;20033;-78
2022/12/05 10:11:54;;;;;;;13.85;7.78;;;5.20;99.90;;;;;;5004288;28;20045;-79
2022/12/05 10:14:57;;;;;;;12.55;7.10;;;5.20;99.90;;;;;;5004915;28;20034;-79
2022/12/05 10:17:39;;;;;;;12.15;7.47;;;5.20;99.90;;;;;;4997589;28;20007;-79
2022/12/05 10:20:23;;;;;;;10.98;6.72;;;5.20;99.90;;;;;;5003734;28;20085;-79
2022/12/05 10:22:55;;;;;;;13.90;7.53;;;5.20;99.90;;;;;;5001671;28;20026;-78
2022/12/05 10:25:25;;;;;;;12.23;6.93;;;5.30;99.90;;;;;;5000295;28;20076;-78
2022/12/05 10:28:12;;;;;;;13.27;6.95;;;5.30;99.90;;;;;;5003268;28;20045;-78
2022/12/05 10:30:42;;;;;;;13.38;7.13;;;5.30;99.90;;;;;;5001328;28;20103;-78
2022/12/05 10:33:19;;;;;;;12.93;7.82;;;5.30;99.90;;;;;;5004857;28;20153;-76
2022/12/05 10:35:45;;;;;;;12.85;6.82;;;5.40;99.90;;;;;;4993545;28;20030;-78
2022/12/05 10:38:17;;;;;;;12.90;7.25;;;5.40;99.90;;;;;;4998156;28;20022;-78
2022/12/05 10:40:50;;;;;;;11.10;6.32;;;5.40;99.90;;;;;;4998695;28;20567;-78
2022/12/05 10:43:25;;;;;;;14.27;6.70;;;5.40;99.90;;;;;;5010559;28;20034;-78
2022/12/05 10:45:55;;;;;;;14.82;6.80;;;5.40;99.90;;;;;;4995835;28;20034;-77
2022/12/05 10:48:30;;;;;;;9.73;5.47;;;5.40;99.90;;;;;;5005053;28;20018;-79
2022/12/05 10:50:57;;;;;;;11.15;6.25;;;5.50;99.90;;;;;;5005709;28;20025;-78
2022/12/05 10:53:55;;;;;;;9.35;5.68;;;5.60;99.90;;;;;;4996463;28;20029;-77
2022/12/05 10:56:49;;;;;;;9.75;5.82;;;5.60;99.90;;;;;;5002609;28;20586;-78
2022/12/05 10:59:18;;;;;;;10.57;6.00;;;5.60;99.90;;;;;;4998557;23;20059;-78
2022/12/05 11:01:50;;;;;;;12.02;6.25;;;5.70;99.90;;;;;;4975062;28;20039;-78
2022/12/05 11:04:53;;;;;;;10.40;6.07;;;5.80;99.90;;;;;;4978078;28;20034;-77
2022/12/05 11:07:31;;;;;;;10.13;5.13;;;5.80;99.90;;;;;;4938989;28;20062;-78
2022/12/05 11:10:02;;;;;;;11.90;5.70;;;5.90;99.90;;;;;;4952339;28;20134;-79
2022/12/05 11:12:39;;;;;;;8.13;5.45;;;5.90;99.90;;;;;;4957937;28;20303;-77
2022/12/05 11:15:28;;;;;;;6.93;4.57;;;6.00;99.90;;;;;;4970284;28;20066;-77
2022/12/05 11:17:56;;;;;;;9.23;5.38;;;6.00;99.90;;;;;;4946294;28;20023;-77
2022/12/05 11:20:22;;;;;;;10.93;5.43;;;6.00;99.90;;;;;;4961297;28;20487;-76
2022/12/05 11:22:58;;;;;;;7.85;5.07;;;6.00;99.90;;;;;;4954261;28;20082;-77
2022/12/05 11:25:39;;;;;;;9.35;4.85;;;6.00;99.90;;;;;;4952689;28;20019;-77
2022/12/05 11:28:20;;;;;;;9.07;4.47;;;6.00;99.90;;;;;;4956840;28;20090;-77
2022/12/05 11:31:11;;;;;;;7.28;4.53;;;6.00;99.90;;;;;;4962808;28;20039;-79
2022/12/05 11:33:40;;;;;;;7.53;4.25;;;6.00;99.90;;;;;;4950053;28;20023;-77
2022/12/05 11:36:22;;;;;;;7.97;4.60;;;6.00;99.90;;;;;;4951866;28;20032;-77
2022/12/05 11:38:48;;;;;;;8.52;4.50;;;6.00;99.90;;;;;;4955054;28;20031;-77
2022/12/05 11:41:51;;;;;;;8.70;5.13;;;6.00;99.90;;;;;;4952021;28;20432;-77
2022/12/05 11:44:44;;;;;;;8.45;4.50;;;6.00;99.90;;;;;;4956304;28;20070;-77
2022/12/05 11:47:09;;;;;;;8.65;4.82;;;6.10;99.90;;;;;;4955589;28;20027;-78
2022/12/05 11:50:10;;;;;;;8.18;4.90;;;6.10;99.90;;;;;;4958928;28;20041;-78
2022/12/05 11:52:55;;;;;;;6.70;3.85;;;6.20;99.90;;;;;;4952150;28;20039;-77
2022/12/05 11:55:27;;;;;;;7.28;3.83;;;6.20;99.90;;;;;;4956440;28;20023;-78
2022/12/05 11:58:41;;;;;;;5.97;3.70;;;6.30;99.90;;;;;;4966608;28;20037;-78
2022/12/05 12:01:44;;;;;;;6.03;3.70;;;6.30;99.90;;;;;;4886023;28;20105;-78
2022/12/05 12:04:16;;;;;;;8.25;4.40;;;6.40;99.90;;;;;;4916440;29;20421;-78
2022/12/05 12:07:23;;;;;;;8.18;3.90;;;6.50;99.90;;;;;;4946548;28;20054;-77
2022/12/05 12:10:17;;;;;;;8.82;4.35;;;6.50;99.90;;;;;;4971337;28;20023;-77
2022/12/05 12:13:15;;;;;;;9.10;4.93;;;6.60;99.90;;;;;;4953233;28;20054;-77
2022/12/05 12:16:06;;;;;;;7.13;3.88;;;6.60;99.90;;;;;;4956533;28;20057;-77
2022/12/05 12:18:50;;;;;;;7.63;4.45;;;6.60;99.90;;;;;;4965212;28;20022;-76
2022/12/05 12:21:50;;;;;;;5.20;3.38;;;6.60;99.90;;;;;;4957382;28;20027;-76
2022/12/05 12:24:34;;;;;;;4.75;3.05;;;6.70;99.90;;;;;;4950683;28;20027;-77
2022/12/05 12:27:39;;;;;;;4.47;3.08;;;6.70;99.90;;;;;;4953376;28;20365;-77
2022/12/05 12:30:27;;;;;;;7.55;3.70;;;6.70;99.90;;;;;;4931330;28;20412;-77
2022/12/05 12:33:10;;;;;;;5.28;3.10;;;6.70;99.90;;;;;;4956232;28;20129;-76
2022/12/05 12:35:58;;;;;;;5.80;3.20;;;6.70;99.90;;;;;;4952566;28;20023;-78
2022/12/05 12:38:24;;;;;;;6.38;3.45;;;6.70;99.90;;;;;;4952333;28;20035;-78
2022/12/05 12:40:53;;;;;;;8.93;3.63;;;6.80;99.90;;;;;;4957251;28;20038;-78
2022/12/05 12:43:34;;;;;;;7.10;3.55;;;6.80;99.90;;;;;;4963769;28;20118;-79
2022/12/05 12:46:11;;;;;;;5.55;3.13;;;6.80;99.90;;;;;;4963519;28;20027;-79
2022/12/05 12:49:04;;;;;;;5.43;2.70;;;6.80;99.90;;;;;;4960727;28;20078;-78
2022/12/05 12:51:32;;;;;;;6.60;2.67;;;6.90;99.90;;;;;;4963299;28;20104;-77
2022/12/05 12:54:39;;;;;;;4.35;2.40;;;6.90;99.90;;;;;;4969275;28;20038;-78
2022/12/05 12:57:33;;;;;;;5.45;2.78;;;6.90;99.90;;;;;;4964671;28;20031;-79
2022/12/05 13:00:25;;;;;;;5.25;2.67;;;6.90;99.90;;;;;;4960551;28;20090;-77
2022/12/05 13:03:00;;;;;;;3.63;2.03;;;7.00;99.90;;;;;;4960391;28;20119;-78
2022/12/05 13:05:46;;;;;;;3.65;2.13;;;7.00;99.90;;;;;;4959389;28;20039;-77
2022/12/05 13:08:38;;;;;;;3.88;2.35;;;7.00;99.90;;;;;;4964791;28;20047;-76
2022/12/05 13:11:11;;;;;;;5.75;1.90;;;7.10;99.90;;;;;;4956114;28;20070;-77
2022/12/05 13:13:55;;;;;;;6.35;2.28;;;7.20;99.90;;;;;;4955243;28;20081;-77
2022/12/05 13:16:42;;;;;;;;;;;7.20;99.90;;;;;;4953191;28;20036;-77
2022/12/05 13:19:36;;;;;;;3.55;1.88;;;7.20;99.90;;;;;;4959815;28;19933;-78
2022/12/05 13:22:07;;;;;;;3.03;1.83;;;7.30;99.90;;;;;;4960843;28;20038;-78
2022/12/05 13:24:46;;;;;;;2.38;1.65;;;7.30;99.90;;;;;;4954128;28;20039;-76
2022/12/05 13:27:20;;;;;;;3.70;1.25;;;7.40;99.90;;;;;;4979804;28;20027;-77
2022/12/05 13:30:00;;;;;;;3.67;1.17;;;7.40;99.90;;;;;;4958280;28;20047;-77
2022/12/05 13:32:31;;;;;;;3.28;1.40;;;7.40;99.90;;;;;;4960553;28;20050;-78
2022/12/05 13:35:06;;;;;;;8.57;1.60;;;7.40;99.90;;;;;;4957576;28;20036;-77
2022/12/05 13:43:41;;;;;;;2.53;1.48;;;7.40;99.90;;;;;;4964332;28;20388;-77